CYED/YED METAR and TAF weather

Enter ICAO airport designator
Station Type Date Time Source
CYED METAR 2018/04/19 13:00 UTC NOAA

CYED 191300Z AUTO 18004KT 9SM CLR M01/M09 A3016 RMK SLP239


Station Type Date Time Source
CYED Decoded METAR 2018/04/19 13:00 UTC NOAA

Edmonton Namao Alta., Canada (CYED) 53-40N 113-28W 688M
Apr 19, 2018 - 09:00 AM EDT / 2018.04.19 1300 UTC
Wind: from the S (180 degrees) at 5 MPH (4 KT):0
Visibility: 9 mile(s):0
Sky conditions: clear
Temperature: 30 F (-1 C)
Windchill: 24 F (-4 C):1
Dew Point: 15 F (-9 C)
Relative Humidity: 54%
Pressure (altimeter): 30.16 in. Hg (1021 hPa)
ob: CYED 191300Z AUTO 18004KT 9SM CLR M01/M09 A3016 RMK SLP239
cycle: 13

Station Type Date Time Source
CYED TAF 2018/04/19 12:33 UTC NOAA

TAF CYED 191130Z 1912/1924 VRB03KT P6SM FEW240
BECMG 1918/1920 14008KT
RMK FCST BASED ON AUTO OBS. NXT FCST BY 191800Z


Example: see airport list